.
WxDataArchive / Data Records for 2009-09-28
2009-09-27 September 2009 2009-09-29

Data Records for Monday, 28 September 2009

Time	Temp	Chill	HIndex	Humid	Dewpt	 Wind 	HiWind	WindDir	Rain 	Barom 
-----	----	-----	------	-----	-----	------	------	-------	-----	----- 
00:00	60.9	60.9	60.9	81	55.0	0	1	90	0.00	29.449 
00:05	60.9	60.9	60.9	81	55.0	1	4	90	0.00	29.449 
00:10	60.9	60.9	60.9	81	55.0	0	4	90	0.00	29.449 
00:15	60.9	60.9	60.9	81	55.0	0	2	112	0.00	29.430 
00:20	60.9	60.9	60.9	81	55.0	0	2	68	0.00	29.430 
00:25	60.9	60.9	60.9	82	55.4	0	2	68	0.00	29.430 
00:30	60.9	60.9	60.9	82	55.4	0	1	68	0.00	29.422 
00:35	61.0	61.0	61.0	82	55.5	0	3	112	0.00	29.422 
00:40	61.0	61.0	61.0	82	55.5	1	5	270	0.00	29.422 
00:45	61.2	61.2	61.2	82	55.7	1	3	270	0.00	29.409 
00:50	61.3	61.3	61.3	82	55.8	1	4	90	0.00	29.409 
00:55	61.5	61.5	61.5	82	55.9	1	6	90	0.00	29.409 
01:00	61.5	61.5	61.5	83	56.3	1	5	90	0.00	29.381 
01:05	61.5	61.5	61.5	83	56.3	1	4	90	0.00	29.381 
01:10	61.5	61.5	61.5	83	56.3	0	3	90	0.00	29.381 
01:15	61.5	61.5	61.5	83	56.3	1	4	292	0.00	29.368 
01:20	61.6	61.6	61.6	83	56.4	0	3	248	0.00	29.368 
01:25	61.8	61.8	61.8	83	56.6	1	4	248	0.00	29.368 
01:30	62.1	62.1	62.1	82	56.5	1	4	248	0.00	29.365 
01:35	62.4	62.4	62.4	81	56.5	2	9	270	0.00	29.365 
01:40	63.1	63.1	63.1	81	57.2	2	6	270	0.00	29.365 
01:45	63.1	63.1	63.1	82	57.5	2	7	292	0.00	29.347 
01:50	62.7	62.7	62.7	84	57.8	3	10	270	0.01	29.347 
01:55	62.4	62.4	62.4	87	58.5	3	7	270	0.01	29.347 
02:00	62.1	62.1	62.1	88	58.5	1	4	270	0.01	29.346 
02:05	61.8	61.8	61.8	90	58.8	2	7	248	0.01	29.346 
02:10	61.8	61.8	61.8	91	59.1	2	7	270	0.00	29.346 
02:15	61.8	61.8	61.8	91	59.1	1	4	248	0.00	29.340 
02:20	61.8	61.8	61.8	92	59.4	1	4	248	0.00	29.340 
02:25	61.8	61.8	61.8	92	59.4	2	6	225	0.00	29.340 
02:30	62.0	62.0	62.0	92	59.6	3	7	248	0.00	29.344 
02:35	62.0	62.0	62.0	92	59.6	2	4	225	0.00	29.344 
02:40	62.0	62.0	62.0	92	59.6	2	5	270	0.00	29.344 
02:45	61.8	61.8	61.8	93	59.8	1	4	292	0.01	29.347 
02:50	61.8	61.8	61.8	93	59.8	2	5	248	0.00	29.347 
02:55	61.8	61.8	61.8	93	59.8	2	4	270	0.01	29.347 
03:00	61.6	61.6	61.6	93	59.6	1	4	270	0.00	29.347 
03:05	61.6	61.6	61.6	93	59.6	2	5	270	0.01	29.347 
03:10	61.6	61.6	61.6	93	59.6	1	4	270	0.00	29.347 
03:15	61.6	61.6	61.6	93	59.6	1	4	270	0.00	29.345 
03:20	61.6	61.6	61.6	93	59.6	1	4	292	0.00	29.345 
03:25	61.6	61.6	61.6	93	59.6	1	4	270	0.00	29.345 
03:30	61.6	61.6	61.6	93	59.6	1	3	270	0.00	29.349 
03:35	61.6	61.6	61.6	93	59.6	2	5	270	0.00	29.349 
03:40	61.6	61.6	61.6	92	59.2	2	4	270	0.00	29.349 
03:45	61.6	61.6	61.6	90	58.6	2	4	270	0.00	29.360 
03:50	61.5	61.5	61.5	89	58.2	2	6	315	0.00	29.360 
03:55	61.5	61.5	61.5	86	57.3	3	6	270	0.00	29.360 
04:00	61.3	61.3	61.3	83	56.1	3	9	315	0.00	29.371 
04:05	61.5	61.5	61.5	81	55.6	4	7	315	0.00	29.371 
04:10	61.2	61.2	61.2	77	53.9	3	9	292	0.00	29.371 
04:15	61.0	61.0	61.0	74	52.6	4	12	270	0.00	29.371 
04:20	60.7	60.7	60.7	75	52.7	2	4	315	0.00	29.371 
04:25	60.7	60.7	60.7	75	52.7	3	9	315	0.00	29.371 
04:30	60.7	60.7	60.7	76	53.1	2	8	315	0.00	29.395 
04:35	60.7	60.7	60.7	76	53.1	4	8	248	0.00	29.395 
04:40	60.5	60.5	60.5	76	52.9	3	7	270	0.00	29.395 
04:45	60.4	60.4	60.4	74	52.1	2	7	315	0.00	29.396 
04:50	60.1	60.1	60.1	70	50.3	3	7	270	0.00	29.396 
04:55	59.8	59.8	59.8	67	48.8	3	8	270	0.00	29.396 
05:00	59.5	59.5	59.5	64	47.3	3	9	315	0.00	29.399 
05:05	59.3	59.3	59.3	63	46.7	2	5	270	0.00	29.399 
05:10	58.9	58.9	58.9	63	46.3	2	6	270	0.00	29.399 
05:15	58.7	58.7	58.7	62	45.7	3	8	292	0.00	29.410 
05:20	58.6	58.6	58.6	62	45.6	3	9	270	0.00	29.410 
05:25	58.3	58.3	58.3	62	45.3	3	7	270	0.00	29.410 
05:30	58.3	58.3	58.3	62	45.3	3	6	270	0.00	29.416 
05:35	58.0	58.0	58.0	62	45.1	1	5	270	0.00	29.416 
05:40	57.6	57.6	57.6	62	44.7	2	4	248	0.00	29.416 
05:45	57.5	57.5	57.5	61	44.2	2	4	270	0.00	29.417 
05:50	57.3	57.3	57.3	61	44.0	2	5	270	0.00	29.417 
05:55	57.0	57.0	57.0	61	43.7	2	5	270	0.00	29.417 
06:00	56.9	56.9	56.9	62	44.0	1	3	270	0.00	29.426 
06:05	56.5	56.5	56.5	63	44.1	1	3	270	0.00	29.426 
06:10	56.3	56.3	56.3	64	44.3	1	3	270	0.00	29.426 
06:15	56.3	56.3	56.3	64	44.3	2	3	315	0.00	29.432 
06:20	56.3	56.3	56.3	64	44.3	2	6	270	0.00	29.432 
06:25	56.3	56.3	56.3	64	44.3	1	4	270	0.00	29.432 
06:30	56.2	56.2	56.2	63	43.8	3	6	270	0.00	29.435 
06:35	56.2	56.2	56.2	60	42.5	4	10	270	0.00	29.435 
06:40	56.0	56.0	56.0	60	42.3	3	7	270	0.00	29.435 
06:45	56.0	56.0	56.0	59	41.9	3	9	270	0.00	29.438 
06:50	55.7	55.7	55.7	59	41.6	2	7	248	0.00	29.438 
06:55	55.6	55.6	55.6	59	41.5	5	10	270	0.00	29.438 
07:00	55.6	55.6	55.6	59	41.5	4	7	270	0.00	29.447 
07:05	55.3	55.3	55.3	59	41.2	3	8	270	0.00	29.447 
07:10	55.0	55.0	55.0	59	40.9	3	6	270	0.00	29.447 
07:15	55.0	55.0	55.0	60	41.4	3	7	270	0.00	29.445 
07:20	54.8	54.8	54.8	58	40.3	4	9	270	0.00	29.445 
07:25	54.7	54.7	54.7	59	40.7	2	5	270	0.00	29.445 
07:30	54.4	54.4	54.4	60	40.8	2	6	270	0.00	29.452 
07:35	54.2	54.2	54.2	59	40.2	3	7	270	0.00	29.452 
07:40	54.1	54.1	54.1	58	39.7	4	9	270	0.00	29.452 
07:45	53.9	53.9	53.9	59	39.9	3	6	270	0.00	29.455 
07:50	53.8	53.8	53.8	58	39.4	3	7	270	0.00	29.455 
07:55	53.9	53.9	53.9	58	39.5	3	9	270	0.00	29.455 
08:00	53.9	53.9	53.9	58	39.5	4	14	270	0.00	29.465 
08:05	54.1	54.1	54.1	59	40.1	3	7	270	0.00	29.465 
08:10	53.9	53.9	53.9	59	39.9	4	9	270	0.00	29.465 
08:15	53.9	53.9	53.9	59	39.9	4	10	270	0.00	29.470 
08:20	53.9	53.9	53.9	59	39.9	4	11	270	0.00	29.470 
08:25	53.9	53.9	53.9	60	40.3	4	10	270	0.00	29.470 
08:30	53.9	53.9	53.9	61	40.8	4	9	270	0.00	29.472 
08:35	53.9	53.9	53.9	60	40.3	3	9	270	0.00	29.472 
08:40	53.9	53.9	53.9	61	40.8	3	8	270	0.00	29.472 
08:45	53.9	53.9	53.9	61	40.8	4	8	270	0.00	29.480 
08:50	53.9	53.9	53.9	60	40.3	4	9	270	0.00	29.480 
08:55	53.9	53.9	53.9	61	40.8	4	8	270	0.00	29.480 
09:00	53.8	53.8	53.8	61	40.7	3	9	270	0.00	29.485 
09:05	53.8	53.8	53.8	61	40.7	4	10	270	0.00	29.485 
09:10	53.6	53.6	53.6	62	40.9	4	10	270	0.00	29.485 
09:15	53.6	53.6	53.6	62	40.9	4	7	270	0.00	29.489 
09:20	53.6	53.6	53.6	63	41.3	4	10	270	0.00	29.489 
09:25	53.8	53.8	53.8	63	41.5	5	14	270	0.00	29.489 
09:30	53.6	53.6	53.6	63	41.3	3	8	270	0.00	29.493 
09:35	53.8	53.8	53.8	62	41.1	4	12	270	0.00	29.493 
09:40	53.8	53.8	53.8	63	41.5	2	5	270	0.00	29.493 
09:45	53.8	53.8	53.8	63	41.5	4	10	270	0.00	29.494 
09:50	53.9	53.9	53.9	63	41.6	4	9	270	0.00	29.494 
09:55	54.1	54.1	54.1	63	41.8	3	11	270	0.00	29.494 
10:00	54.2	54.2	54.2	62	41.5	3	7	270	0.00	29.496 
10:05	54.2	54.2	54.2	63	41.9	4	11	270	0.00	29.496 
10:10	54.5	54.5	54.5	62	41.7	5	11	270	0.00	29.496 
10:15	54.8	54.8	54.8	63	42.4	3	6	270	0.00	29.499 
10:20	54.8	54.8	54.8	62	42.0	3	10	270	0.00	29.499 
10:25	54.8	54.8	54.8	63	42.4	3	7	270	0.00	29.499 
10:30	54.7	54.7	54.7	62	41.9	4	7	270	0.00	29.500 
10:35	54.7	54.7	54.7	62	41.9	4	9	270	0.00	29.500 
10:40	54.7	54.7	54.7	62	41.9	5	11	270	0.00	29.500 
10:45	54.7	54.7	54.7	63	42.4	4	11	270	0.00	29.505 
10:50	54.7	54.7	54.7	63	42.4	4	13	270	0.00	29.505 
10:55	54.7	54.7	54.7	63	42.4	4	7	270	0.00	29.505 
11:00	54.7	54.7	54.7	63	42.4	4	12	270	0.00	29.512 
11:05	54.5	54.5	54.5	63	42.2	4	9	270	0.00	29.512 
11:10	54.5	54.5	54.5	63	42.2	3	10	270	0.00	29.512 
11:15	54.7	54.7	54.7	63	42.4	3	7	248	0.00	29.519 
11:20	54.7	54.7	54.7	63	42.4	3	7	270	0.00	29.519 
11:25	54.7	54.7	54.7	63	42.4	2	7	270	0.00	29.519 
11:30	54.7	54.7	54.7	63	42.4	3	6	270	0.00	29.523 
11:35	54.7	54.7	54.7	63	42.4	4	10	270	0.00	29.523 
11:40	54.7	54.7	54.7	64	42.8	3	6	248	0.00	29.523 
11:45	54.7	54.7	54.7	64	42.8	4	11	270	0.00	29.530 
11:50	54.8	54.8	54.8	63	42.4	5	12	270	0.00	29.530 
11:55	54.8	54.8	54.8	64	42.9	4	10	270	0.00	29.530 
12:00	55.0	55.0	55.0	64	43.0	3	9	270	0.00	29.536 
12:05	55.1	55.1	55.1	64	43.1	3	9	270	0.00	29.536 
12:10	55.1	55.1	55.1	63	42.7	4	10	270	0.00	29.536 
12:15	55.1	55.1	55.1	63	42.7	5	10	270	0.00	29.536 
12:20	55.1	55.1	55.1	64	43.1	4	10	270	0.00	29.536 
12:25	55.3	55.3	55.3	64	43.3	4	9	270	0.00	29.536 
12:30	55.1	55.1	55.1	64	43.1	5	12	270	0.00	29.540 
12:35	55.1	55.1	55.1	64	43.1	4	9	270	0.00	29.540 
12:40	55.3	55.3	55.3	64	43.3	3	9	270	0.00	29.540 
12:45	55.3	55.3	55.3	65	43.7	3	7	270	0.00	29.548 
12:50	55.6	55.6	55.6	63	43.2	3	7	270	0.00	29.548 
12:55	55.6	55.6	55.6	64	43.6	4	9	270	0.00	29.548 
13:00	55.7	55.7	55.7	63	43.3	3	6	270	0.00	29.550 
13:05	55.9	55.9	55.9	63	43.5	4	7	270	0.00	29.550 
13:10	56.0	56.0	56.0	63	43.6	3	7	270	0.00	29.550 
13:15	56.3	56.3	56.3	62	43.4	4	11	270	0.00	29.550 
13:20	56.6	56.6	56.6	62	43.7	3	7	270	0.00	29.550 
13:25	57.0	57.0	57.0	62	44.1	4	9	270	0.00	29.550 
13:30	57.2	57.2	57.2	61	43.9	3	7	270	0.00	29.550 
13:35	57.5	57.5	57.5	60	43.7	5	12	270	0.00	29.550 
13:40	57.5	57.5	57.5	60	43.7	4	7	270	0.00	29.550 
13:45	57.6	57.6	57.6	59	43.4	3	5	270	0.00	29.548 
13:50	57.6	57.6	57.6	59	43.4	3	7	270	0.00	29.548 
13:55	57.8	57.8	57.8	58	43.1	4	10	270	0.00	29.548 
14:00	57.8	57.8	57.8	58	43.1	5	12	270	0.00	29.549 
14:05	57.8	57.8	57.8	57	42.7	6	10	270	0.00	29.549 
14:10	57.8	57.8	57.8	58	43.1	3	7	270	0.00	29.549 
14:15	57.8	57.8	57.8	59	43.6	2	5	270	0.00	29.549 
14:20	57.8	57.8	57.8	58	43.1	3	9	270	0.00	29.549 
14:25	57.6	57.6	57.6	57	42.5	4	9	270	0.00	29.549 
14:30	57.6	57.6	57.6	58	42.9	3	10	270	0.00	29.557 
14:35	57.6	57.6	57.6	58	42.9	3	7	270	0.00	29.557 
14:40	57.6	57.6	57.6	58	42.9	4	8	270	0.00	29.557 
14:45	57.8	57.8	57.8	57	42.7	4	12	270	0.00	29.561 
14:50	58.1	58.1	58.1	57	42.9	5	10	270	0.00	29.561 
14:55	58.4	58.4	58.4	56	42.8	4	9	270	0.00	29.561 
15:00	58.7	58.7	58.7	56	43.0	4	10	270	0.00	29.556 
15:05	59.0	59.0	59.0	57	43.8	3	5	248	0.00	29.556 
15:10	59.3	59.3	59.3	54	42.7	3	8	270	0.00	29.556 
15:15	59.3	59.3	59.3	53	42.2	5	10	270	0.00	29.561 
15:20	59.2	59.2	59.2	53	42.1	4	7	270	0.00	29.561 
15:25	59.0	59.0	59.0	54	42.4	3	6	270	0.00	29.561 
15:30	59.0	59.0	59.0	54	42.4	3	7	270	0.00	29.563 
15:35	58.9	58.9	58.9	54	42.3	5	11	270	0.00	29.563 
15:40	59.2	59.2	59.2	54	42.6	5	10	270	0.00	29.563 
15:45	59.0	59.0	59.0	54	42.4	5	10	270	0.00	29.565 
15:50	59.0	59.0	59.0	54	42.4	4	7	270	0.00	29.565 
15:55	58.7	58.7	58.7	53	41.6	6	12	270	0.00	29.565 
16:00	58.6	58.6	58.6	54	42.0	4	11	270	0.00	29.571 
16:05	58.6	58.6	58.6	54	42.0	4	10	270	0.00	29.571 
16:10	58.7	58.7	58.7	54	42.1	4	10	270	0.00	29.571 
16:15	58.7	58.7	58.7	55	42.6	3	6	270	0.00	29.575 
16:20	58.7	58.7	58.7	54	42.1	5	10	270	0.00	29.575 
16:25	58.7	58.7	58.7	54	42.1	5	11	270	0.00	29.575 
16:30	58.7	58.7	58.7	54	42.1	5	9	270	0.00	29.577 
16:35	58.7	58.7	58.7	55	42.6	3	9	270	0.00	29.577 
16:40	58.7	58.7	58.7	55	42.6	4	10	270	0.00	29.577 
16:45	59.0	59.0	59.0	55	42.9	4	11	270	0.00	29.579 
16:50	59.2	59.2	59.2	54	42.6	4	7	270	0.00	29.579 
16:55	59.3	59.3	59.3	54	42.7	4	10	270	0.00	29.579 
17:00	59.5	59.5	59.5	54	42.8	4	9	270	0.00	29.581 
17:05	59.3	59.3	59.3	53	42.2	4	9	270	0.00	29.581 
17:10	59.2	59.2	59.2	53	42.1	4	10	270	0.00	29.581 
17:15	59.2	59.2	59.2	52	41.6	4	9	270	0.00	29.585 
17:20	59.3	59.3	59.3	52	41.7	4	10	270	0.00	29.585 
17:25	59.5	59.5	59.5	53	42.4	3	5	270	0.00	29.585 
17:30	59.5	59.5	59.5	53	42.4	4	9	270	0.00	29.590 
17:35	59.6	59.6	59.6	53	42.4	3	5	270	0.00	29.590 
17:40	59.6	59.6	59.6	53	42.4	3	9	270	0.00	29.590 
17:45	59.5	59.5	59.5	53	42.4	3	9	270	0.00	29.594 
17:50	59.5	59.5	59.5	54	42.8	2	7	270	0.00	29.594 
17:55	59.3	59.3	59.3	52	41.7	4	9	270	0.00	29.594 
18:00	59.3	59.3	59.3	53	42.2	3	6	270	0.00	29.600 
18:05	59.3	59.3	59.3	53	42.2	3	6	270	0.00	29.600 
18:10	59.2	59.2	59.2	54	42.6	3	6	270	0.00	29.600 
18:15	59.2	59.2	59.2	54	42.6	2	6	248	0.00	29.610 
18:20	59.2	59.2	59.2	54	42.6	3	9	270	0.00	29.610 
18:25	59.2	59.2	59.2	53	42.1	4	9	270	0.00	29.610 
18:30	59.2	59.2	59.2	52	41.6	3	9	270	0.00	29.614 
18:35	59.2	59.2	59.2	52	41.6	3	7	270	0.00	29.614 
18:40	59.2	59.2	59.2	52	41.6	3	9	270	0.00	29.614 
18:45	59.2	59.2	59.2	52	41.6	3	11	248	0.00	29.609 
18:50	59.2	59.2	59.2	51	41.1	4	8	270	0.00	29.609 
18:55	59.2	59.2	59.2	51	41.1	4	12	270	0.00	29.609 
19:00	59.2	59.2	59.2	51	41.1	3	7	270	0.00	29.604 
19:05	59.2	59.2	59.2	51	41.1	4	7	270	0.00	29.604 
19:10	59.2	59.2	59.2	51	41.1	4	7	270	0.00	29.604 
19:15	59.2	59.2	59.2	51	41.1	3	5	270	0.00	29.612 
19:20	59.0	59.0	59.0	51	40.9	3	7	270	0.00	29.612 
19:25	59.0	59.0	59.0	52	41.4	3	7	270	0.00	29.612 
19:30	58.9	58.9	58.9	52	41.3	3	9	270	0.00	29.615 
19:35	58.9	58.9	58.9	52	41.3	5	10	270	0.00	29.615 
19:40	59.0	59.0	59.0	52	41.4	4	11	270	0.00	29.615 
19:45	58.9	58.9	58.9	52	41.3	4	7	270	0.00	29.617 
19:50	58.9	58.9	58.9	52	41.3	2	6	270	0.00	29.617 
19:55	58.9	58.9	58.9	51	40.8	5	14	270	0.00	29.617 
20:00	58.9	58.9	58.9	51	40.8	5	10	270	0.00	29.618 
20:05	58.7	58.7	58.7	52	41.1	3	7	270	0.00	29.618 
20:10	58.6	58.6	58.6	51	40.5	4	9	270	0.00	29.618 
20:15	58.6	58.6	58.6	51	40.5	5	12	270	0.00	29.624 
20:20	58.4	58.4	58.4	51	40.3	4	6	270	0.00	29.624 
20:25	58.4	58.4	58.4	50	39.8	5	12	270	0.00	29.624 
20:30	58.3	58.3	58.3	51	40.3	5	11	270	0.00	29.618 
20:35	58.3	58.3	58.3	50	39.7	5	9	270	0.00	29.618 
20:40	58.3	58.3	58.3	51	40.3	4	9	270	0.00	29.618 
20:45	58.3	58.3	58.3	51	40.3	4	10	270	0.00	29.623 
20:50	58.1	58.1	58.1	51	40.1	4	10	270	0.00	29.623 
20:55	58.1	58.1	58.1	52	40.6	4	9	270	0.00	29.623 
21:00	58.0	58.0	58.0	52	40.5	4	7	270	0.00	29.623 
21:05	58.1	58.1	58.1	52	40.6	4	10	270	0.00	29.623 
21:10	58.0	58.0	58.0	52	40.5	4	10	270	0.00	29.623 
21:15	58.0	58.0	58.0	52	40.5	4	9	270	0.00	29.629 
21:20	58.0	58.0	58.0	53	41.0	5	10	270	0.00	29.629 
21:25	57.8	57.8	57.8	54	41.3	4	9	292	0.00	29.629 
21:30	57.6	57.6	57.6	54	41.1	5	10	270	0.00	29.632 
21:35	57.5	57.5	57.5	54	41.0	5	13	270	0.00	29.632 
21:40	57.5	57.5	57.5	55	41.5	5	10	270	0.00	29.632 
21:45	57.3	57.3	57.3	55	41.3	3	9	270	0.00	29.633 
21:50	57.2	57.2	57.2	56	41.6	2	7	270	0.00	29.633 
21:55	57.2	57.2	57.2	56	41.6	5	10	270	0.00	29.633 
22:00	57.0	57.0	57.0	56	41.5	4	7	270	0.00	29.634 
22:05	57.0	57.0	57.0	56	41.5	3	7	270	0.00	29.634 
22:10	57.0	57.0	57.0	57	41.9	4	7	270	0.00	29.634 
22:15	57.0	57.0	57.0	57	41.9	5	10	270	0.00	29.633 
22:20	56.9	56.9	56.9	57	41.8	3	7	270	0.00	29.633 
22:25	56.9	56.9	56.9	56	41.4	5	11	270	0.00	29.633 
22:30	57.0	57.0	57.0	57	41.9	4	8	292	0.00	29.637 
22:35	56.9	56.9	56.9	57	41.8	4	9	270	0.00	29.637 
22:40	56.9	56.9	56.9	58	42.3	4	10	270	0.00	29.637 
22:45	56.7	56.7	56.7	58	42.1	5	10	292	0.00	29.646 
22:50	56.5	56.5	56.5	60	42.8	4	10	270	0.00	29.646 
22:55	56.2	56.2	56.2	61	42.9	5	11	270	0.00	29.646 
23:00	55.9	55.9	55.9	61	42.6	4	10	270	0.00	29.649 
23:05	55.9	55.9	55.9	62	43.1	4	11	270	0.00	29.649 
23:10	55.7	55.7	55.7	62	42.9	3	6	270	0.00	29.649 
23:15	55.7	55.7	55.7	62	42.9	2	6	270	0.00	29.651 
23:20	55.4	55.4	55.4	63	43.0	3	7	270	0.00	29.651 
23:25	55.1	55.1	55.1	66	43.9	3	6	270	0.00	29.651 
23:30	54.7	54.7	54.7	68	44.3	4	7	270	0.00	29.663 
23:35	53.9	53.9	53.9	73	45.4	3	6	270	0.00	29.663 
23:40	53.2	53.2	53.2	75	45.5	3	9	270	0.00	29.663 
23:45	52.8	52.8	52.8	78	46.1	2	7	270	0.01	29.664 
23:50	52.5	52.5	52.5	79	46.2	2	5	270	0.00	29.664 
23:55	52.3	52.3	52.3	81	46.6	1	4	270	0.00	29.664 

CoCoRaHS
IN-AL-39
A2 Web Hosting
Creative Commons License
GoDaddy
search engine by freefind advanced

loaded 2018-11-21 01:33:26 • last modified 2010-11-18 10:43:29
Privacy PolicyDisclaimer
• wx.awcolley.com is powered by PmWiki v.2002016 •
• all content (unless otherwise noted) © 2018 A W Colley